sensor_id;sensor_type;location;lat;lon;timestamp;P1;durP1;ratioP1;P2;durP2;ratioP2
22064;SDS011;11197;53.110;8.468;2023-06-04T00:00:11;7.65;;;3.13;;
22064;SDS011;11197;53.110;8.468;2023-06-04T00:02:37;5.75;;;2.83;;
22064;SDS011;11197;53.110;8.468;2023-06-04T00:05:03;7.53;;;3.00;;
22064;SDS011;11197;53.110;8.468;2023-06-04T00:07:29;7.07;;;3.17;;
22064;SDS011;11197;53.110;8.468;2023-06-04T00:09:54;7.10;;;2.70;;
22064;SDS011;11197;53.110;8.468;2023-06-04T00:12:20;8.88;;;2.97;;
22064;SDS011;11197;53.110;8.468;2023-06-04T00:14:46;4.85;;;2.55;;
22064;SDS011;11197;53.110;8.468;2023-06-04T00:17:11;4.38;;;2.47;;
22064;SDS011;11197;53.110;8.468;2023-06-04T00:19:40;6.55;;;3.05;;
22064;SDS011;11197;53.110;8.468;2023-06-04T00:22:06;5.22;;;2.80;;
22064;SDS011;11197;53.110;8.468;2023-06-04T00:24:32;6.25;;;2.88;;
22064;SDS011;11197;53.110;8.468;2023-06-04T00:26:59;5.93;;;2.97;;
22064;SDS011;11197;53.110;8.468;2023-06-04T00:29:25;5.60;;;2.78;;
22064;SDS011;11197;53.110;8.468;2023-06-04T00:31:50;6.05;;;2.72;;
22064;SDS011;11197;53.110;8.468;2023-06-04T00:34:17;5.05;;;2.72;;
22064;SDS011;11197;53.110;8.468;2023-06-04T00:36:42;5.32;;;3.05;;
22064;SDS011;11197;53.110;8.468;2023-06-04T00:39:08;8.32;;;2.92;;
22064;SDS011;11197;53.110;8.468;2023-06-04T00:41:34;4.60;;;2.85;;
22064;SDS011;11197;53.110;8.468;2023-06-04T00:44:00;6.60;;;3.25;;
22064;SDS011;11197;53.110;8.468;2023-06-04T00:46:27;6.13;;;2.83;;
22064;SDS011;11197;53.110;8.468;2023-06-04T00:48:54;9.90;;;3.30;;
22064;SDS011;11197;53.110;8.468;2023-06-04T00:51:20;5.47;;;3.10;;
22064;SDS011;11197;53.110;8.468;2023-06-04T00:53:46;6.10;;;3.20;;
22064;SDS011;11197;53.110;8.468;2023-06-04T00:56:13;5.95;;;3.30;;
22064;SDS011;11197;53.110;8.468;2023-06-04T00:58:39;6.18;;;3.03;;
22064;SDS011;11197;53.110;8.468;2023-06-04T01:04:27;6.43;;;2.97;;
22064;SDS011;11197;53.110;8.468;2023-06-04T01:06:57;6.97;;;3.83;;
22064;SDS011;11197;53.110;8.468;2023-06-04T01:09:27;8.05;;;3.55;;
22064;SDS011;11197;53.110;8.468;2023-06-04T01:11:53;7.88;;;3.50;;
22064;SDS011;11197;53.110;8.468;2023-06-04T01:14:22;7.15;;;3.55;;
22064;SDS011;11197;53.110;8.468;2023-06-04T01:16:55;8.23;;;3.47;;
22064;SDS011;11197;53.110;8.468;2023-06-04T01:22:10;6.80;;;3.25;;
22064;SDS011;11197;53.110;8.468;2023-06-04T01:24:45;5.78;;;3.35;;
22064;SDS011;11197;53.110;8.468;2023-06-04T01:27:20;7.03;;;3.22;;
22064;SDS011;11197;53.110;8.468;2023-06-04T01:29:47;7.97;;;3.80;;
22064;SDS011;11197;53.110;8.468;2023-06-04T01:32:15;6.07;;;3.30;;
22064;SDS011;11197;53.110;8.468;2023-06-04T01:34:45;6.25;;;3.60;;
22064;SDS011;11197;53.110;8.468;2023-06-04T01:37:12;6.55;;;3.55;;
22064;SDS011;11197;53.110;8.468;2023-06-04T01:39:38;6.35;;;3.38;;
22064;SDS011;11197;53.110;8.468;2023-06-04T01:42:04;5.95;;;3.50;;
22064;SDS011;11197;53.110;8.468;2023-06-04T01:44:30;6.93;;;3.20;;
22064;SDS011;11197;53.110;8.468;2023-06-04T01:46:55;5.78;;;3.17;;
22064;SDS011;11197;53.110;8.468;2023-06-04T01:49:21;6.95;;;3.13;;
22064;SDS011;11197;53.110;8.468;2023-06-04T01:51:46;8.25;;;3.20;;
22064;SDS011;11197;53.110;8.468;2023-06-04T01:54:12;7.28;;;2.72;;
22064;SDS011;11197;53.110;8.468;2023-06-04T01:56:38;5.63;;;2.90;;
22064;SDS011;11197;53.110;8.468;2023-06-04T01:59:03;4.97;;;2.72;;
22064;SDS011;11197;53.110;8.468;2023-06-04T02:01:29;6.45;;;3.40;;
22064;SDS011;11197;53.110;8.468;2023-06-04T02:03:55;6.88;;;3.28;;
22064;SDS011;11197;53.110;8.468;2023-06-04T02:06:20;7.53;;;3.00;;
22064;SDS011;11197;53.110;8.468;2023-06-04T02:08:46;8.18;;;2.90;;
22064;SDS011;11197;53.110;8.468;2023-06-04T02:11:11;6.78;;;3.20;;
22064;SDS011;11197;53.110;8.468;2023-06-04T02:13:37;5.95;;;3.00;;
22064;SDS011;11197;53.110;8.468;2023-06-04T02:16:03;5.20;;;3.05;;
22064;SDS011;11197;53.110;8.468;2023-06-04T02:18:29;5.25;;;2.90;;
22064;SDS011;11197;53.110;8.468;2023-06-04T02:20:56;7.18;;;3.17;;
22064;SDS011;11197;53.110;8.468;2023-06-04T02:23:22;6.60;;;3.20;;
22064;SDS011;11197;53.110;8.468;2023-06-04T02:25:48;7.30;;;3.05;;
22064;SDS011;11197;53.110;8.468;2023-06-04T02:28:14;6.47;;;3.08;;
22064;SDS011;11197;53.110;8.468;2023-06-04T02:30:40;6.43;;;3.20;;
22064;SDS011;11197;53.110;8.468;2023-06-04T02:33:06;5.85;;;3.08;;
22064;SDS011;11197;53.110;8.468;2023-06-04T02:35:34;5.68;;;3.38;;
22064;SDS011;11197;53.110;8.468;2023-06-04T02:38:00;6.45;;;2.95;;
22064;SDS011;11197;53.110;8.468;2023-06-04T02:40:26;4.85;;;2.53;;
22064;SDS011;11197;53.110;8.468;2023-06-04T02:42:52;5.70;;;2.90;;
22064;SDS011;11197;53.110;8.468;2023-06-04T02:45:19;7.57;;;3.58;;
22064;SDS011;11197;53.110;8.468;2023-06-04T02:47:44;5.80;;;2.97;;
22064;SDS011;11197;53.110;8.468;2023-06-04T02:50:11;5.15;;;3.15;;
22064;SDS011;11197;53.110;8.468;2023-06-04T02:52:38;6.18;;;2.90;;
22064;SDS011;11197;53.110;8.468;2023-06-04T02:55:05;6.78;;;3.28;;
22064;SDS011;11197;53.110;8.468;2023-06-04T02:57:32;8.52;;;3.50;;
22064;SDS011;11197;53.110;8.468;2023-06-04T03:00:02;6.80;;;3.08;;
22064;SDS011;11197;53.110;8.468;2023-06-04T03:02:38;5.97;;;3.10;;
22064;SDS011;11197;53.110;8.468;2023-06-04T03:07:36;5.43;;;3.25;;
22064;SDS011;11197;53.110;8.468;2023-06-04T03:10:02;6.13;;;3.35;;
22064;SDS011;11197;53.110;8.468;2023-06-04T03:12:30;5.90;;;3.00;;
22064;SDS011;11197;53.110;8.468;2023-06-04T03:14:56;8.68;;;3.40;;
22064;SDS011;11197;53.110;8.468;2023-06-04T03:17:21;4.95;;;3.10;;
22064;SDS011;11197;53.110;8.468;2023-06-04T03:19:47;8.40;;;3.22;;
22064;SDS011;11197;53.110;8.468;2023-06-04T03:22:13;8.55;;;3.70;;
22064;SDS011;11197;53.110;8.468;2023-06-04T03:24:40;6.10;;;3.25;;
22064;SDS011;11197;53.110;8.468;2023-06-04T03:27:07;5.15;;;3.00;;
22064;SDS011;11197;53.110;8.468;2023-06-04T03:29:33;7.93;;;3.30;;
22064;SDS011;11197;53.110;8.468;2023-06-04T03:32:02;5.88;;;3.00;;
22064;SDS011;11197;53.110;8.468;2023-06-04T03:34:29;6.18;;;3.10;;
22064;SDS011;11197;53.110;8.468;2023-06-04T03:36:57;5.68;;;3.60;;
22064;SDS011;11197;53.110;8.468;2023-06-04T03:39:24;5.75;;;3.13;;
22064;SDS011;11197;53.110;8.468;2023-06-04T03:41:50;5.03;;;3.22;;
22064;SDS011;11197;53.110;8.468;2023-06-04T03:44:17;5.10;;;3.30;;
22064;SDS011;11197;53.110;8.468;2023-06-04T03:46:44;5.88;;;3.30;;
22064;SDS011;11197;53.110;8.468;2023-06-04T03:49:13;6.65;;;3.33;;
22064;SDS011;11197;53.110;8.468;2023-06-04T03:51:41;6.38;;;3.55;;
22064;SDS011;11197;53.110;8.468;2023-06-04T03:54:08;7.80;;;3.80;;
22064;SDS011;11197;53.110;8.468;2023-06-04T03:56:35;6.40;;;3.10;;
22064;SDS011;11197;53.110;8.468;2023-06-04T03:59:01;5.90;;;3.17;;
22064;SDS011;11197;53.110;8.468;2023-06-04T04:01:27;6.03;;;2.97;;
22064;SDS011;11197;53.110;8.468;2023-06-04T04:03:54;5.43;;;3.00;;
22064;SDS011;11197;53.110;8.468;2023-06-04T04:06:20;6.47;;;3.40;;
22064;SDS011;11197;53.110;8.468;2023-06-04T04:08:46;6.95;;;3.58;;
22064;SDS011;11197;53.110;8.468;2023-06-04T04:11:15;7.55;;;3.53;;
22064;SDS011;11197;53.110;8.468;2023-06-04T04:13:41;7.18;;;3.90;;
22064;SDS011;11197;53.110;8.468;2023-06-04T04:16:09;5.50;;;3.58;;
22064;SDS011;11197;53.110;8.468;2023-06-04T04:18:35;5.97;;;3.97;;
22064;SDS011;11197;53.110;8.468;2023-06-04T04:21:02;7.05;;;3.75;;
22064;SDS011;11197;53.110;8.468;2023-06-04T04:23:29;6.68;;;3.95;;
22064;SDS011;11197;53.110;8.468;2023-06-04T04:25:57;9.27;;;3.50;;
22064;SDS011;11197;53.110;8.468;2023-06-04T04:28:24;6.97;;;3.63;;
22064;SDS011;11197;53.110;8.468;2023-06-04T04:30:54;6.40;;;3.35;;
22064;SDS011;11197;53.110;8.468;2023-06-04T04:33:22;6.63;;;3.53;;
22064;SDS011;11197;53.110;8.468;2023-06-04T04:35:50;8.20;;;3.78;;
22064;SDS011;11197;53.110;8.468;2023-06-04T04:38:19;7.78;;;4.00;;
22064;SDS011;11197;53.110;8.468;2023-06-04T04:40:52;8.07;;;3.90;;
22064;SDS011;11197;53.110;8.468;2023-06-04T04:43:28;12.40;;;4.45;;
22064;SDS011;11197;53.110;8.468;2023-06-04T04:45:56;8.02;;;4.00;;
22064;SDS011;11197;53.110;8.468;2023-06-04T04:48:22;7.47;;;3.80;;
22064;SDS011;11197;53.110;8.468;2023-06-04T04:50:48;8.85;;;3.63;;
22064;SDS011;11197;53.110;8.468;2023-06-04T04:53:13;8.45;;;3.83;;
22064;SDS011;11197;53.110;8.468;2023-06-04T04:55:39;11.02;;;4.78;;
22064;SDS011;11197;53.110;8.468;2023-06-04T04:58:05;9.82;;;4.18;;
22064;SDS011;11197;53.110;8.468;2023-06-04T05:00:31;6.20;;;3.42;;
22064;SDS011;11197;53.110;8.468;2023-06-04T05:02:57;8.75;;;3.90;;
22064;SDS011;11197;53.110;8.468;2023-06-04T05:05:23;6.57;;;4.20;;
22064;SDS011;11197;53.110;8.468;2023-06-04T05:07:49;8.63;;;4.05;;
22064;SDS011;11197;53.110;8.468;2023-06-04T05:10:17;9.57;;;4.45;;
22064;SDS011;11197;53.110;8.468;2023-06-04T05:12:56;9.50;;;4.75;;
22064;SDS011;11197;53.110;8.468;2023-06-04T05:15:30;7.07;;;4.25;;
22064;SDS011;11197;53.110;8.468;2023-06-04T05:17:57;8.65;;;4.75;;
22064;SDS011;11197;53.110;8.468;2023-06-04T05:20:27;9.40;;;4.25;;
22064;SDS011;11197;53.110;8.468;2023-06-04T05:22:53;8.25;;;4.05;;
22064;SDS011;11197;53.110;8.468;2023-06-04T05:25:20;9.80;;;5.00;;
22064;SDS011;11197;53.110;8.468;2023-06-04T05:27:46;6.88;;;4.20;;
22064;SDS011;11197;53.110;8.468;2023-06-04T05:30:14;7.03;;;3.97;;
22064;SDS011;11197;53.110;8.468;2023-06-04T05:32:41;7.43;;;4.65;;
22064;SDS011;11197;53.110;8.468;2023-06-04T05:35:09;8.25;;;4.10;;
22064;SDS011;11197;53.110;8.468;2023-06-04T05:37:36;9.07;;;4.70;;
22064;SDS011;11197;53.110;8.468;2023-06-04T05:40:05;9.90;;;3.97;;
22064;SDS011;11197;53.110;8.468;2023-06-04T05:42:34;8.80;;;4.10;;
22064;SDS011;11197;53.110;8.468;2023-06-04T05:45:00;9.40;;;3.92;;
22064;SDS011;11197;53.110;8.468;2023-06-04T05:47:27;10.38;;;4.10;;
22064;SDS011;11197;53.110;8.468;2023-06-04T05:49:54;8.68;;;3.35;;
22064;SDS011;11197;53.110;8.468;2023-06-04T05:52:20;10.10;;;3.70;;
22064;SDS011;11197;53.110;8.468;2023-06-04T05:54:46;8.27;;;3.95;;
22064;SDS011;11197;53.110;8.468;2023-06-04T05:57:12;8.65;;;3.58;;
22064;SDS011;11197;53.110;8.468;2023-06-04T05:59:38;10.95;;;3.70;;
22064;SDS011;11197;53.110;8.468;2023-06-04T06:02:07;10.35;;;3.70;;
22064;SDS011;11197;53.110;8.468;2023-06-04T06:04:33;7.78;;;3.50;;
22064;SDS011;11197;53.110;8.468;2023-06-04T06:06:59;6.85;;;3.30;;
22064;SDS011;11197;53.110;8.468;2023-06-04T06:09:24;9.02;;;3.22;;
22064;SDS011;11197;53.110;8.468;2023-06-04T06:11:50;9.02;;;3.42;;
22064;SDS011;11197;53.110;8.468;2023-06-04T06:14:16;6.85;;;3.17;;
22064;SDS011;11197;53.110;8.468;2023-06-04T06:16:42;7.32;;;3.00;;
22064;SDS011;11197;53.110;8.468;2023-06-04T06:19:07;7.30;;;3.15;;
22064;SDS011;11197;53.110;8.468;2023-06-04T06:21:33;10.32;;;3.20;;
22064;SDS011;11197;53.110;8.468;2023-06-04T06:24:00;6.07;;;2.67;;
22064;SDS011;11197;53.110;8.468;2023-06-04T06:26:25;9.13;;;2.90;;
22064;SDS011;11197;53.110;8.468;2023-06-04T06:28:55;8.18;;;2.72;;
22064;SDS011;11197;53.110;8.468;2023-06-04T06:31:21;7.25;;;2.80;;
22064;SDS011;11197;53.110;8.468;2023-06-04T06:33:46;7.72;;;2.75;;
22064;SDS011;11197;53.110;8.468;2023-06-04T06:36:12;7.22;;;2.58;;
22064;SDS011;11197;53.110;8.468;2023-06-04T06:38:38;6.88;;;2.60;;
22064;SDS011;11197;53.110;8.468;2023-06-04T06:41:04;8.43;;;2.63;;
22064;SDS011;11197;53.110;8.468;2023-06-04T06:43:30;7.65;;;2.13;;
22064;SDS011;11197;53.110;8.468;2023-06-04T06:45:56;7.88;;;2.78;;
22064;SDS011;11197;53.110;8.468;2023-06-04T06:48:22;6.68;;;2.60;;
22064;SDS011;11197;53.110;8.468;2023-06-04T06:50:48;6.80;;;2.40;;
22064;SDS011;11197;53.110;8.468;2023-06-04T06:53:14;6.85;;;2.30;;
22064;SDS011;11197;53.110;8.468;2023-06-04T06:55:39;6.95;;;2.25;;
22064;SDS011;11197;53.110;8.468;2023-06-04T06:58:05;7.18;;;2.70;;
22064;SDS011;11197;53.110;8.468;2023-06-04T07:00:31;7.72;;;2.50;;
22064;SDS011;11197;53.110;8.468;2023-06-04T07:02:56;4.47;;;2.10;;
22064;SDS011;11197;53.110;8.468;2023-06-04T07:05:22;6.40;;;2.20;;
22064;SDS011;11197;53.110;8.468;2023-06-04T07:07:48;7.32;;;2.20;;
22064;SDS011;11197;53.110;8.468;2023-06-04T07:10:13;7.00;;;2.63;;
22064;SDS011;11197;53.110;8.468;2023-06-04T07:12:39;6.30;;;2.15;;
22064;SDS011;11197;53.110;8.468;2023-06-04T07:15:06;7.78;;;2.33;;
22064;SDS011;11197;53.110;8.468;2023-06-04T07:17:33;5.47;;;2.20;;
22064;SDS011;11197;53.110;8.468;2023-06-04T07:19:59;6.35;;;2.10;;
22064;SDS011;11197;53.110;8.468;2023-06-04T07:22:25;6.43;;;2.10;;
22064;SDS011;11197;53.110;8.468;2023-06-04T07:24:51;4.47;;;2.03;;
22064;SDS011;11197;53.110;8.468;2023-06-04T07:27:16;5.68;;;2.10;;
22064;SDS011;11197;53.110;8.468;2023-06-04T07:29:43;6.57;;;2.10;;
22064;SDS011;11197;53.110;8.468;2023-06-04T07:32:09;7.07;;;1.60;;
22064;SDS011;11197;53.110;8.468;2023-06-04T07:34:35;4.15;;;1.45;;
22064;SDS011;11197;53.110;8.468;2023-06-04T07:37:02;4.32;;;1.70;;
22064;SDS011;11197;53.110;8.468;2023-06-04T07:39:28;6.22;;;1.90;;
22064;SDS011;11197;53.110;8.468;2023-06-04T07:41:54;4.97;;;1.67;;
22064;SDS011;11197;53.110;8.468;2023-06-04T07:44:19;5.82;;;1.80;;
22064;SDS011;11197;53.110;8.468;2023-06-04T07:46:45;5.30;;;1.60;;
22064;SDS011;11197;53.110;8.468;2023-06-04T07:49:11;5.75;;;1.52;;
22064;SDS011;11197;53.110;8.468;2023-06-04T07:51:36;6.30;;;1.83;;
22064;SDS011;11197;53.110;8.468;2023-06-04T07:54:02;4.93;;;1.70;;
22064;SDS011;11197;53.110;8.468;2023-06-04T07:56:28;6.35;;;1.70;;
22064;SDS011;11197;53.110;8.468;2023-06-04T07:58:53;5.15;;;1.70;;
22064;SDS011;11197;53.110;8.468;2023-06-04T08:01:20;3.83;;;1.63;;
22064;SDS011;11197;53.110;8.468;2023-06-04T08:03:46;6.35;;;1.80;;
22064;SDS011;11197;53.110;8.468;2023-06-04T08:06:12;6.43;;;1.90;;
22064;SDS011;11197;53.110;8.468;2023-06-04T08:08:41;6.40;;;1.75;;
22064;SDS011;11197;53.110;8.468;2023-06-04T08:11:16;4.93;;;1.80;;
22064;SDS011;11197;53.110;8.468;2023-06-04T08:13:42;4.32;;;1.70;;
22064;SDS011;11197;53.110;8.468;2023-06-04T08:16:08;4.70;;;1.73;;
22064;SDS011;11197;53.110;8.468;2023-06-04T08:18:38;4.43;;;1.50;;
22064;SDS011;11197;53.110;8.468;2023-06-04T08:21:04;5.80;;;1.70;;
22064;SDS011;11197;53.110;8.468;2023-06-04T08:23:31;4.93;;;1.60;;
22064;SDS011;11197;53.110;8.468;2023-06-04T08:25:57;3.83;;;1.48;;
22064;SDS011;11197;53.110;8.468;2023-06-04T08:28:24;4.38;;;1.20;;
22064;SDS011;11197;53.110;8.468;2023-06-04T08:30:49;3.53;;;1.30;;
22064;SDS011;11197;53.110;8.468;2023-06-04T08:33:15;4.10;;;1.40;;
22064;SDS011;11197;53.110;8.468;2023-06-04T08:35:41;5.32;;;1.70;;
22064;SDS011;11197;53.110;8.468;2023-06-04T08:38:06;4.75;;;1.60;;
22064;SDS011;11197;53.110;8.468;2023-06-04T08:40:32;3.95;;;1.50;;
22064;SDS011;11197;53.110;8.468;2023-06-04T08:42:59;5.40;;;1.58;;
22064;SDS011;11197;53.110;8.468;2023-06-04T08:45:26;5.10;;;1.30;;
22064;SDS011;11197;53.110;8.468;2023-06-04T08:47:52;6.53;;;1.67;;
22064;SDS011;11197;53.110;8.468;2023-06-04T08:50:20;8.30;;;2.10;;
22064;SDS011;11197;53.110;8.468;2023-06-04T08:52:47;4.70;;;1.40;;
22064;SDS011;11197;53.110;8.468;2023-06-04T08:55:17;7.28;;;2.08;;
22064;SDS011;11197;53.110;8.468;2023-06-04T08:57:44;5.13;;;1.65;;
22064;SDS011;11197;53.110;8.468;2023-06-04T09:00:12;5.47;;;1.40;;
22064;SDS011;11197;53.110;8.468;2023-06-04T09:02:38;4.40;;;1.48;;
22064;SDS011;11197;53.110;8.468;2023-06-04T09:05:04;7.03;;;1.63;;
22064;SDS011;11197;53.110;8.468;2023-06-04T09:07:33;5.13;;;1.50;;
22064;SDS011;11197;53.110;8.468;2023-06-04T09:10:02;3.78;;;1.60;;
22064;SDS011;11197;53.110;8.468;2023-06-04T09:12:29;5.00;;;1.50;;
22064;SDS011;11197;53.110;8.468;2023-06-04T09:14:55;3.85;;;1.75;;
22064;SDS011;11197;53.110;8.468;2023-06-04T09:17:24;7.03;;;1.75;;
22064;SDS011;11197;53.110;8.468;2023-06-04T09:19:50;4.70;;;1.30;;
22064;SDS011;11197;53.110;8.468;2023-06-04T09:22:16;5.80;;;1.60;;
22064;SDS011;11197;53.110;8.468;2023-06-04T09:24:43;5.32;;;1.50;;
22064;SDS011;11197;53.110;8.468;2023-06-04T09:27:16;6.40;;;1.42;;
22064;SDS011;11197;53.110;8.468;2023-06-04T09:29:49;6.20;;;1.50;;
22064;SDS011;11197;53.110;8.468;2023-06-04T09:34:51;5.88;;;1.58;;
22064;SDS011;11197;53.110;8.468;2023-06-04T09:37:18;3.70;;;1.30;;
22064;SDS011;11197;53.110;8.468;2023-06-04T09:39:51;3.92;;;1.50;;
22064;SDS011;11197;53.110;8.468;2023-06-04T09:42:18;3.92;;;1.20;;
22064;SDS011;11197;53.110;8.468;2023-06-04T09:44:44;5.82;;;1.23;;
22064;SDS011;11197;53.110;8.468;2023-06-04T09:47:13;5.55;;;1.30;;
22064;SDS011;11197;53.110;8.468;2023-06-04T09:52:08;4.50;;;1.50;;
22064;SDS011;11197;53.110;8.468;2023-06-04T09:54:35;3.90;;;1.30;;
22064;SDS011;11197;53.110;8.468;2023-06-04T09:57:02;4.95;;;1.48;;
22064;SDS011;11197;53.110;8.468;2023-06-04T09:59:30;5.32;;;1.50;;
22064;SDS011;11197;53.110;8.468;2023-06-04T10:02:01;3.75;;;1.13;;
22064;SDS011;11197;53.110;8.468;2023-06-04T10:04:29;3.47;;;1.30;;
22064;SDS011;11197;53.110;8.468;2023-06-04T10:06:55;3.38;;;1.40;;
22064;SDS011;11197;53.110;8.468;2023-06-04T10:09:21;3.60;;;1.20;;
22064;SDS011;11197;53.110;8.468;2023-06-04T10:11:51;3.80;;;1.30;;
22064;SDS011;11197;53.110;8.468;2023-06-04T10:14:21;3.42;;;1.30;;
22064;SDS011;11197;53.110;8.468;2023-06-04T10:16:49;3.90;;;1.25;;
22064;SDS011;11197;53.110;8.468;2023-06-04T10:19:16;3.22;;;1.05;;
22064;SDS011;11197;53.110;8.468;2023-06-04T10:21:43;3.75;;;1.25;;
22064;SDS011;11197;53.110;8.468;2023-06-04T10:24:09;3.33;;;1.30;;
22064;SDS011;11197;53.110;8.468;2023-06-04T10:26:38;2.17;;;1.10;;
22064;SDS011;11197;53.110;8.468;2023-06-04T10:29:05;3.15;;;1.10;;
22064;SDS011;11197;53.110;8.468;2023-06-04T10:31:32;3.30;;;1.17;;
22064;SDS011;11197;53.110;8.468;2023-06-04T10:33:58;4.00;;;1.33;;
22064;SDS011;11197;53.110;8.468;2023-06-04T10:36:24;2.70;;;1.23;;
22064;SDS011;11197;53.110;8.468;2023-06-04T10:38:51;3.88;;;1.40;;
22064;SDS011;11197;53.110;8.468;2023-06-04T10:41:18;3.60;;;1.40;;
22064;SDS011;11197;53.110;8.468;2023-06-04T10:43:46;3.72;;;1.48;;
22064;SDS011;11197;53.110;8.468;2023-06-04T10:46:19;3.83;;;1.50;;
22064;SDS011;11197;53.110;8.468;2023-06-04T10:51:30;4.93;;;1.60;;
22064;SDS011;11197;53.110;8.468;2023-06-04T10:53:57;6.07;;;1.80;;
22064;SDS011;11197;53.110;8.468;2023-06-04T10:56:27;5.05;;;1.83;;
22064;SDS011;11197;53.110;8.468;2023-06-04T10:58:54;5.60;;;1.73;;
22064;SDS011;11197;53.110;8.468;2023-06-04T11:01:27;4.55;;;1.63;;
22064;SDS011;11197;53.110;8.468;2023-06-04T11:03:54;3.88;;;1.80;;
22064;SDS011;11197;53.110;8.468;2023-06-04T11:06:20;4.72;;;1.63;;
22064;SDS011;11197;53.110;8.468;2023-06-04T11:08:47;5.10;;;1.60;;
22064;SDS011;11197;53.110;8.468;2023-06-04T11:11:14;5.40;;;1.73;;
22064;SDS011;11197;53.110;8.468;2023-06-04T11:13:40;6.13;;;2.25;;
22064;SDS011;11197;53.110;8.468;2023-06-04T11:16:19;5.68;;;2.00;;
22064;SDS011;11197;53.110;8.468;2023-06-04T11:18:55;4.63;;;1.95;;
22064;SDS011;11197;53.110;8.468;2023-06-04T11:21:21;7.45;;;1.90;;
22064;SDS011;11197;53.110;8.468;2023-06-04T11:23:48;5.10;;;1.65;;
22064;SDS011;11197;53.110;8.468;2023-06-04T11:26:20;5.32;;;2.00;;
22064;SDS011;11197;53.110;8.468;2023-06-04T11:28:48;4.47;;;1.95;;
22064;SDS011;11197;53.110;8.468;2023-06-04T11:31:14;4.82;;;1.80;;
22064;SDS011;11197;53.110;8.468;2023-06-04T11:36:09;4.38;;;1.50;;
22064;SDS011;11197;53.110;8.468;2023-06-04T11:38:35;4.18;;;1.67;;
22064;SDS011;11197;53.110;8.468;2023-06-04T11:41:01;5.07;;;1.50;;
22064;SDS011;11197;53.110;8.468;2023-06-04T11:43:29;4.72;;;1.70;;
22064;SDS011;11197;53.110;8.468;2023-06-04T11:45:57;6.93;;;2.10;;
22064;SDS011;11197;53.110;8.468;2023-06-04T11:48:23;9.30;;;1.63;;
22064;SDS011;11197;53.110;8.468;2023-06-04T11:50:48;5.13;;;1.50;;
22064;SDS011;11197;53.110;8.468;2023-06-04T11:53:14;5.43;;;1.80;;
22064;SDS011;11197;53.110;8.468;2023-06-04T11:55:40;4.97;;;1.73;;
22064;SDS011;11197;53.110;8.468;2023-06-04T11:58:06;3.70;;;1.65;;
22064;SDS011;11197;53.110;8.468;2023-06-04T12:00:33;6.05;;;1.70;;
22064;SDS011;11197;53.110;8.468;2023-06-04T12:02:59;4.45;;;1.60;;
22064;SDS011;11197;53.110;8.468;2023-06-04T12:05:31;3.80;;;1.50;;
22064;SDS011;11197;53.110;8.468;2023-06-04T12:08:06;4.60;;;1.90;;
22064;SDS011;11197;53.110;8.468;2023-06-04T12:10:41;4.55;;;1.70;;
22064;SDS011;11197;53.110;8.468;2023-06-04T12:13:08;5.82;;;1.60;;
22064;SDS011;11197;53.110;8.468;2023-06-04T12:15:34;4.55;;;1.50;;
22064;SDS011;11197;53.110;8.468;2023-06-04T12:18:00;5.72;;;1.33;;
22064;SDS011;11197;53.110;8.468;2023-06-04T12:20:40;4.22;;;1.77;;
22064;SDS011;11197;53.110;8.468;2023-06-04T12:23:09;6.35;;;1.40;;
22064;SDS011;11197;53.110;8.468;2023-06-04T12:25:49;3.75;;;1.33;;
22064;SDS011;11197;53.110;8.468;2023-06-04T12:28:19;4.15;;;1.52;;
22064;SDS011;11197;53.110;8.468;2023-06-04T12:30:44;5.43;;;1.42;;
22064;SDS011;11197;53.110;8.468;2023-06-04T12:33:11;3.70;;;1.58;;
22064;SDS011;11197;53.110;8.468;2023-06-04T12:35:37;5.60;;;1.50;;
22064;SDS011;11197;53.110;8.468;2023-06-04T12:38:03;4.00;;;1.20;;
22064;SDS011;11197;53.110;8.468;2023-06-04T12:40:30;3.67;;;1.65;;
22064;SDS011;11197;53.110;8.468;2023-06-04T12:42:55;5.88;;;1.50;;
22064;SDS011;11197;53.110;8.468;2023-06-04T12:45:21;4.57;;;1.45;;
22064;SDS011;11197;53.110;8.468;2023-06-04T12:47:47;5.93;;;1.45;;
22064;SDS011;11197;53.110;8.468;2023-06-04T12:50:12;4.68;;;1.52;;
22064;SDS011;11197;53.110;8.468;2023-06-04T12:52:38;4.85;;;1.50;;
22064;SDS011;11197;53.110;8.468;2023-06-04T12:55:04;3.97;;;1.50;;
22064;SDS011;11197;53.110;8.468;2023-06-04T12:57:30;3.75;;;1.40;;
22064;SDS011;11197;53.110;8.468;2023-06-04T12:59:56;6.18;;;1.55;;
22064;SDS011;11197;53.110;8.468;2023-06-04T13:02:22;7.25;;;1.30;;
22064;SDS011;11197;53.110;8.468;2023-06-04T13:04:48;4.93;;;1.42;;
22064;SDS011;11197;53.110;8.468;2023-06-04T13:07:18;6.70;;;1.63;;
22064;SDS011;11197;53.110;8.468;2023-06-04T13:09:43;4.82;;;1.50;;
22064;SDS011;11197;53.110;8.468;2023-06-04T13:12:09;5.45;;;1.50;;
22064;SDS011;11197;53.110;8.468;2023-06-04T13:14:35;5.28;;;1.70;;
22064;SDS011;11197;53.110;8.468;2023-06-04T13:17:00;4.20;;;1.33;;
22064;SDS011;11197;53.110;8.468;2023-06-04T13:19:26;4.38;;;1.50;;
22064;SDS011;11197;53.110;8.468;2023-06-04T13:21:52;3.63;;;1.50;;
22064;SDS011;11197;53.110;8.468;2023-06-04T13:24:17;6.20;;;1.73;;
22064;SDS011;11197;53.110;8.468;2023-06-04T13:26:43;7.55;;;1.75;;
22064;SDS011;11197;53.110;8.468;2023-06-04T13:29:08;4.22;;;1.65;;
22064;SDS011;11197;53.110;8.468;2023-06-04T13:31:34;4.82;;;1.50;;
22064;SDS011;11197;53.110;8.468;2023-06-04T13:34:00;4.43;;;1.40;;
22064;SDS011;11197;53.110;8.468;2023-06-04T13:36:26;4.97;;;1.73;;
22064;SDS011;11197;53.110;8.468;2023-06-04T13:38:51;4.68;;;1.50;;
22064;SDS011;11197;53.110;8.468;2023-06-04T13:41:19;3.28;;;1.40;;
22064;SDS011;11197;53.110;8.468;2023-06-04T13:43:46;3.53;;;1.50;;
22064;SDS011;11197;53.110;8.468;2023-06-04T13:46:11;5.25;;;1.40;;
22064;SDS011;11197;53.110;8.468;2023-06-04T13:48:37;5.95;;;1.60;;
22064;SDS011;11197;53.110;8.468;2023-06-04T13:51:03;7.55;;;1.83;;
22064;SDS011;11197;53.110;8.468;2023-06-04T13:53:28;5.13;;;1.70;;
22064;SDS011;11197;53.110;8.468;2023-06-04T13:55:54;6.00;;;1.50;;
22064;SDS011;11197;53.110;8.468;2023-06-04T13:58:23;4.32;;;1.50;;
22064;SDS011;11197;53.110;8.468;2023-06-04T14:00:52;4.25;;;1.48;;
22064;SDS011;11197;53.110;8.468;2023-06-04T14:03:17;3.75;;;1.30;;
22064;SDS011;11197;53.110;8.468;2023-06-04T14:05:43;5.03;;;2.60;;
22064;SDS011;11197;53.110;8.468;2023-06-04T14:08:09;4.82;;;1.80;;
22064;SDS011;11197;53.110;8.468;2023-06-04T14:10:37;5.25;;;1.80;;
22064;SDS011;11197;53.110;8.468;2023-06-04T14:13:06;4.85;;;1.73;;
22064;SDS011;11197;53.110;8.468;2023-06-04T14:15:32;6.10;;;1.60;;
22064;SDS011;11197;53.110;8.468;2023-06-04T14:17:58;5.15;;;1.52;;
22064;SDS011;11197;53.110;8.468;2023-06-04T14:20:24;5.68;;;1.70;;
22064;SDS011;11197;53.110;8.468;2023-06-04T14:22:49;4.63;;;1.65;;
22064;SDS011;11197;53.110;8.468;2023-06-04T14:25:15;4.47;;;1.45;;
22064;SDS011;11197;53.110;8.468;2023-06-04T14:27:41;3.63;;;1.50;;
22064;SDS011;11197;53.110;8.468;2023-06-04T14:30:06;4.18;;;1.60;;
22064;SDS011;11197;53.110;8.468;2023-06-04T14:32:32;4.82;;;1.52;;
22064;SDS011;11197;53.110;8.468;2023-06-04T14:34:59;4.13;;;1.80;;
22064;SDS011;11197;53.110;8.468;2023-06-04T14:37:24;6.18;;;1.80;;
22064;SDS011;11197;53.110;8.468;2023-06-04T14:39:50;5.22;;;1.85;;
22064;SDS011;11197;53.110;8.468;2023-06-04T14:42:16;4.70;;;1.95;;
22064;SDS011;11197;53.110;8.468;2023-06-04T14:44:42;5.85;;;2.05;;
22064;SDS011;11197;53.110;8.468;2023-06-04T14:47:07;6.55;;;2.17;;
22064;SDS011;11197;53.110;8.468;2023-06-04T14:49:33;4.15;;;1.80;;
22064;SDS011;11197;53.110;8.468;2023-06-04T14:51:58;7.55;;;1.90;;
22064;SDS011;11197;53.110;8.468;2023-06-04T14:54:25;6.85;;;1.80;;
22064;SDS011;11197;53.110;8.468;2023-06-04T14:56:52;5.78;;;2.22;;
22064;SDS011;11197;53.110;8.468;2023-06-04T14:59:18;7.70;;;1.55;;
22064;SDS011;11197;53.110;8.468;2023-06-04T15:01:43;6.85;;;1.40;;
22064;SDS011;11197;53.110;8.468;2023-06-04T15:04:11;5.93;;;1.70;;